• location
  • image
mod_vvisit_countermod_vvisit_countermod_vvisit_countermod_vvisit_countermod_vvisit_countermod_vvisit_counter
mod_vvisit_counterToday539
mod_vvisit_counterYesterday632
mod_vvisit_counterThis week539
mod_vvisit_counterLast week3560
mod_vvisit_counterThis month8982
mod_vvisit_counterLast month17136
mod_vvisit_counterAll days937768

We have: 10 guests online
Your IP: 54.224.83.221
 , 
Today: Jul 16, 2018
Airport / Company

Company

Municipal company Siauliu oro uostas.

In November 2003, under the decision of Siauliai City Municipality Council, municipal company Siauliu Oro Uostas was set up. Under the resolution of the Lithuanian Government, the company was granted the right to serve civil transport in Siauliai Military Aerodrome.

The company is a limited liability public entity.

The main objective  – to provide public passenger and cargo air transportation services.

The company’s main activities include airport operations and air transport services.

Currently, 21 employees work for the company.

Organisation chart of the company is given below:

 

Today

Monday, 16 July 2018

Aviation Weather Forecast

[source: ADDS]
METAR
EYSA 161720Z 01005KT 9999 VCTS FEW037CB SCT053 22/19 Q1011 BLU TEMPO 3000 TSRA YLO1 =
TAF
TAF EYSA 161700Z 1618/1703 03010KT 7000 BKN025 TEMPO 1618/1622 03020KT 1500 TSRA BKN010 BKN020CB TEMPO 1622/1703 3000 BR BKN004 =
SR / SS: 02:11 / 18:56 UTC (EYSA 2018-07-16)

Search

Who's Online

We have 10 guests online

tic logo en